Bredene, Belgium
Current Conditions -  °F | °C
As of 1:20 PM on Thursday 29 Jan 2015 (Local Time) from EBOS Reporting Station
Scattered Clouds Scattered Clouds  
Wind Chill: 34°   Ceiling: Unl
Heat Index: 43°   Visibility: 6mi
Dew Point: 32°   Wind: 22mph
Humidity: 66%   Direction: 250°WSW
Pressure: 29.06"   Gusts: 33mph
Location:  51.23°N, 2.98°E
Report Text: EBOS 291220Z 25019G29KT 9999 FEW027 SCT040 06/M00 Q0984 NOSIG
Loading
Personal Weather Stations






























Interactive Weather Map New forecast layout! Learn more

10-Day Weather Forecast

Advertisements
Track Severe Weather on mobile